createdAt,value
2022-07-30T04:01:08.448Z,73.092003
2022-07-30T04:03:22.822Z,72.905998
2022-07-30T04:05:37.393Z,74.379997
2022-07-30T04:07:52.715Z,74.578003
2022-07-30T04:10:08.085Z,74.553001
2022-07-30T04:12:22.456Z,74.015999
2022-07-30T04:14:36.856Z,73.617996
2022-07-30T04:16:51.194Z,73.067001
2022-07-30T04:19:05.624Z,72.628998
2022-07-30T04:21:20.006Z,71.890999
2022-07-30T04:23:34.355Z,71.208
2022-07-30T04:25:51.679Z,71.002998
2022-07-30T04:28:06.073Z,70.710999
2022-07-30T04:30:20.503Z,70.294998
2022-07-30T04:32:35.834Z,70.004997
2022-07-30T04:34:50.183Z,69.759003
2022-07-30T04:37:05.012Z,69.504997
2022-07-30T04:39:19.065Z,69.031998
2022-07-30T04:41:44.539Z,68.796997
2022-07-30T04:43:51.989Z,68.477997
2022-07-30T04:46:06.465Z,68.452003
2022-07-30T04:48:20.708Z,68.206001
2022-07-30T04:50:35.205Z,68.246002
2022-07-30T04:52:49.943Z,68.752998
2022-07-30T04:55:04.300Z,68.791
2022-07-30T04:57:18.655Z,68.875
2022-07-30T04:59:34.029Z,68.875
2022-07-30T05:01:48.445Z,68.713997
2022-07-30T05:04:02.763Z,68.681
2022-07-30T05:06:17.148Z,68.463997
2022-07-30T05:08:31.519Z,68.167999
2022-07-30T05:10:46.112Z,67.823997
2022-07-30T05:13:01.509Z,67.666
2022-07-30T05:15:17.836Z,67.452003
2022-07-30T05:17:33.168Z,67.581001
2022-07-30T05:19:47.518Z,67.707001
2022-07-30T05:22:06.488Z,68.184998
2022-07-30T05:24:18.274Z,68.133003
2022-07-30T05:26:32.582Z,68.050003
2022-07-30T05:28:49.560Z,68.028
2022-07-30T05:31:08.223Z,68.042
2022-07-30T05:33:19.623Z,68.359001
2022-07-30T05:35:36.934Z,68.412003
2022-07-30T05:37:51.299Z,68.697998
2022-07-30T05:40:05.687Z,68.842003
2022-07-30T05:42:20.074Z,68.736
2022-07-30T05:44:34.495Z,69.440002
2022-07-30T05:46:48.873Z,69.958
2022-07-30T05:49:03.396Z,69.904999
2022-07-30T05:51:17.682Z,70.095001
2022-07-30T05:53:32.094Z,70.014
2022-07-30T05:55:46.420Z,69.876999
2022-07-30T05:58:00.790Z,70.297997
2022-07-30T06:00:15.270Z,70.500999
2022-07-30T06:02:30.187Z,70.787003
2022-07-30T06:04:46.928Z,71.167999
2022-07-30T06:07:02.663Z,71.431999
2022-07-30T06:09:16.657Z,71.738998
2022-07-30T06:11:33.991Z,71.914001
2022-07-30T06:13:48.456Z,72.043999
2022-07-30T06:16:02.906Z,72.009003
2022-07-30T06:18:17.242Z,72.398003
2022-07-30T06:20:33.632Z,72.932999
2022-07-30T06:22:48.206Z,73.046997
2022-07-30T06:25:02.565Z,73.292
2022-07-30T06:27:16.970Z,73.299004
2022-07-30T06:29:31.347Z,73.615997
2022-07-30T06:31:45.730Z,73.452003
2022-07-30T06:34:00.276Z,73.605003
2022-07-30T06:36:14.655Z,73.403999
2022-07-30T06:38:29.010Z,73.698997
2022-07-30T06:40:43.362Z,74.095001
2022-07-30T06:42:57.772Z,74.307999
2022-07-30T06:45:12.366Z,74.446999
2022-07-30T06:47:26.754Z,74.869003
2022-07-30T06:49:42.486Z,75.074997
2022-07-30T06:51:56.882Z,75.041
2022-07-30T06:54:11.706Z,74.820999
2022-07-30T06:56:25.982Z,74.822998
2022-07-30T06:58:40.399Z,74.517998
2022-07-30T07:00:54.770Z,74.509003
2022-07-30T07:03:11.741Z,73.489998
2022-07-30T07:05:23.577Z,73.670998
2022-07-30T07:07:42.175Z,72.597
2022-07-30T07:09:55.245Z,72.185997
2022-07-30T07:12:09.635Z,72.111
2022-07-30T07:14:23.996Z,70.984001
2022-07-30T07:16:38.500Z,70.5
2022-07-30T07:18:52.868Z,70.739998
2022-07-30T07:21:08.436Z,70.140999
2022-07-30T07:23:22.879Z,69.705002
2022-07-30T07:25:39.239Z,69.084
2022-07-30T07:28:11.477Z,68.774002
2022-07-30T07:30:10.935Z,68.670998
2022-07-30T07:32:25.313Z,68.428001
2022-07-30T07:34:39.681Z,68.557999
2022-07-30T07:36:54.023Z,68.333
2022-07-30T07:39:08.375Z,68.028
2022-07-30T07:41:24.710Z,66.484001
2022-07-30T07:43:40.119Z,65.935997
2022-07-30T07:45:54.522Z,66.176003
2022-07-30T07:48:08.851Z,66.239998
2022-07-30T07:50:23.235Z,65.875
2022-07-30T07:52:37.609Z,65.850998
2022-07-30T07:54:51.960Z,65.598
2022-07-30T07:57:07.320Z,65.150002
2022-07-30T07:59:25.487Z,64.789001
2022-07-30T08:01:42.033Z,64.045998
2022-07-30T08:03:56.339Z,63.764
2022-07-30T08:06:14.722Z,63.73
2022-07-30T08:08:26.050Z,63.450001
2022-07-30T08:10:40.467Z,63.115002
2022-07-30T08:12:54.823Z,63.201
2022-07-30T08:15:09.205Z,63.238998
2022-07-30T08:17:23.779Z,63.433998
2022-07-30T08:19:37.981Z,63.169998
2022-07-30T08:21:53.352Z,62.626999
2022-07-30T08:24:07.688Z,62.306
2022-07-30T08:26:22.104Z,62.130001
2022-07-30T08:28:36.842Z,61.874001
2022-07-30T08:30:50.791Z,62.393002
2022-07-30T08:33:07.134Z,62.587002
2022-07-30T08:35:21.525Z,62.507
2022-07-30T08:37:35.821Z,62.048
2022-07-30T08:39:51.209Z,61.679001
2022-07-30T08:42:05.856Z,61.630001
2022-07-30T08:44:19.918Z,61.48
2022-07-30T08:46:34.287Z,61.289001
2022-07-30T08:51:03.026Z,61.115002
2022-07-30T08:53:17.381Z,61.379002
2022-07-30T08:55:31.755Z,61.32
2022-07-30T08:57:46.109Z,60.831001
2022-07-30T09:00:01.866Z,60.688999
2022-07-30T09:02:14.863Z,60.044998
2022-07-30T09:04:32.212Z,59.817001
2022-07-30T09:06:46.553Z,59.827
2022-07-30T09:09:00.930Z,59.910999
2022-07-30T09:11:15.293Z,59.819
2022-07-30T09:13:29.660Z,59.946999
2022-07-30T09:15:44.023Z,59.66
2022-07-30T09:17:58.420Z,58.719002
2022-07-30T09:20:12.826Z,57.988998
2022-07-30T09:22:27.185Z,57.495998
2022-07-30T09:24:41.588Z,57.349998
2022-07-30T09:26:55.972Z,57.299
2022-07-30T09:29:10.348Z,57.351002
2022-07-30T09:31:24.781Z,57.223
2022-07-30T09:33:40.185Z,56.581001
2022-07-30T09:35:55.408Z,56.794998
2022-07-30T09:38:09.777Z,56.561001
2022-07-30T09:40:24.575Z,56.411999
2022-07-30T09:42:41.471Z,55.042
2022-07-30T09:44:55.853Z,54.66
2022-07-30T09:47:10.211Z,54.257
2022-07-30T09:49:24.674Z,53.474998
2022-07-30T09:51:54.986Z,50.678001
2022-07-30T09:53:56.459Z,49.481998
2022-07-30T09:56:11.892Z,50.896
2022-07-30T09:58:28.049Z,51.921001
2022-07-30T10:02:56.076Z,52.087002
2022-07-30T10:05:14.053Z,52.672001
2022-07-30T10:07:27.897Z,53.027
2022-07-30T10:09:45.299Z,52.358002
2022-07-30T10:11:59.893Z,49.887001
2022-07-30T10:14:15.985Z,49.603001
2022-07-30T10:16:33.369Z,48.518002
2022-07-30T10:18:48.761Z,48.696999
2022-07-30T10:21:05.448Z,48.689999
2022-07-30T10:23:18.452Z,48.778999
2022-07-30T10:25:35.279Z,48.638
2022-07-30T10:27:57.023Z,48.932999
2022-07-30T10:30:08.465Z,49.351002
2022-07-30T10:32:27.495Z,48.841999
2022-07-30T10:34:42.502Z,47.824001
2022-07-30T10:36:55.467Z,47.667
2022-07-30T10:39:10.805Z,47.566002
2022-07-30T10:41:27.525Z,46.922001
2022-07-30T10:43:42.480Z,46.956001
2022-07-30T10:45:57.836Z,47.085999
2022-07-30T10:48:15.195Z,46.754002
2022-07-30T10:50:29.696Z,47.122002
2022-07-30T10:52:44.048Z,46.687
2022-07-30T10:54:59.389Z,47.824001
2022-07-30T10:57:23.285Z,47.719002
2022-07-30T10:59:32.042Z,47.208
2022-07-30T11:01:51.549Z,46.585999
2022-07-30T11:04:04.696Z,46.494999
2022-07-30T11:06:24.117Z,46.341
2022-07-30T11:08:36.060Z,45.787998
2022-07-30T11:10:52.669Z,45.946999
2022-07-30T11:13:07.003Z,45.887001
2022-07-30T11:15:21.385Z,45.793999
2022-07-30T11:17:37.716Z,45.973
2022-07-30T11:19:57.819Z,45.421001
2022-07-30T11:22:09.454Z,45.307999
2022-07-30T11:24:24.834Z,45.155998
2022-07-30T11:26:41.023Z,44.933998
2022-07-30T11:28:54.550Z,44.880001
2022-07-30T11:31:10.238Z,44.908001
2022-07-30T11:33:31.881Z,44.889999
2022-07-30T11:35:41.591Z,44.169998
2022-07-30T11:37:56.894Z,44.099998
2022-07-30T11:40:14.223Z,43.848
2022-07-30T11:42:31.566Z,42.936001
2022-07-30T11:44:45.971Z,42.82
2022-07-30T11:47:00.402Z,42.686001
2022-07-30T11:49:14.824Z,42.737999
2022-07-30T11:51:29.163Z,42.862
2022-07-30T11:53:45.487Z,42.615002
2022-07-30T11:55:59.886Z,42.562
2022-07-30T11:58:14.341Z,42.167
2022-07-30T12:00:28.765Z,41.835999
2022-07-30T12:02:43.328Z,41.737999
2022-07-30T12:04:57.626Z,41.324001
2022-07-30T12:07:12.033Z,41.252998
2022-07-30T12:09:27.366Z,41.773998
2022-07-30T12:11:41.808Z,41.478001
2022-07-30T12:13:56.328Z,41.334999
2022-07-30T12:16:10.790Z,41.063
2022-07-30T12:18:26.570Z,40.889999
2022-07-30T12:20:39.635Z,40.942001
2022-07-30T12:22:53.958Z,40.563
2022-07-30T12:25:08.340Z,40.613998
2022-07-30T12:27:23.727Z,40.716999
2022-07-30T12:29:38.205Z,40.618
2022-07-30T12:31:52.584Z,40.546001
2022-07-30T12:34:07.002Z,40.422001
2022-07-30T12:36:21.423Z,40.102001
2022-07-30T12:38:35.812Z,39.678001
2022-07-30T12:40:50.291Z,39.779999
2022-07-30T12:43:04.640Z,39.827
2022-07-30T12:45:22.052Z,39.498001
2022-07-30T12:47:36.620Z,39.674999
2022-07-30T12:49:53.255Z,39.610001
2022-07-30T12:52:09.650Z,40.242001
2022-07-30T12:54:24.660Z,39.881001
2022-07-30T12:56:39.098Z,40.316002
2022-07-30T12:58:53.528Z,40.787998
2022-07-30T13:01:09.015Z,40.481998
2022-07-30T13:03:23.388Z,40.084
2022-07-30T13:05:37.885Z,39.970001
2022-07-30T13:07:52.280Z,40.576
2022-07-30T13:10:06.626Z,39.938999
2022-07-30T13:12:20.997Z,39.889
2022-07-30T13:14:35.412Z,40.348999
2022-07-30T13:16:49.842Z,40.380001
2022-07-30T13:19:04.188Z,40.116001
2022-07-30T13:21:18.652Z,40.567001
2022-07-30T13:23:33.093Z,40.733002
2022-07-30T13:25:47.490Z,40.419998
2022-07-30T13:28:01.886Z,39.875
2022-07-30T13:30:16.302Z,40.220001
2022-07-30T13:32:30.678Z,39.625
2022-07-30T13:34:45.135Z,39.328999
2022-07-30T13:37:00.777Z,39.786999
2022-07-30T13:39:14.938Z,39.314999
2022-07-30T13:41:30.344Z,40.014
2022-07-30T13:43:44.791Z,38.922001
2022-07-30T13:45:59.915Z,38.567001
2022-07-30T13:48:13.731Z,37.919998
2022-07-30T13:50:28.162Z,37.897999
2022-07-30T13:52:42.523Z,37.868
2022-07-30T13:54:57.939Z,37.518002
2022-07-30T13:57:12.378Z,36.636002
2022-07-30T13:59:26.858Z,36.84
2022-07-30T14:01:41.461Z,36.081001
2022-07-30T14:03:55.835Z,36.431999
2022-07-30T14:06:11.478Z,36.112999
2022-07-30T14:08:24.576Z,36.243999
2022-07-30T14:10:39.005Z,35.681999
2022-07-30T14:12:53.414Z,35.874001
2022-07-30T14:15:07.851Z,35.558998
2022-07-30T14:17:24.308Z,35.375
2022-07-30T14:19:38.700Z,35.548
2022-07-30T14:21:53.135Z,33.950001
2022-07-30T14:24:07.976Z,33.084999
2022-07-30T14:26:21.877Z,33.167
2022-07-30T14:28:38.266Z,33.962002
2022-07-30T14:30:53.703Z,33.599998
2022-07-30T14:33:08.146Z,33.737
2022-07-30T14:35:22.592Z,33.612999
2022-07-30T14:37:37.029Z,33.240002
2022-07-30T14:39:52.410Z,32.721001
2022-07-30T14:42:06.814Z,32.973999
2022-07-30T14:44:21.230Z,33.695999
2022-07-30T14:46:35.646Z,32.709
2022-07-30T14:48:53.116Z,32.557999
2022-07-30T14:51:16.176Z,33.148998
2022-07-30T14:53:25.856Z,33.051998
2022-07-30T14:55:40.259Z,33.187
2022-07-30T14:57:54.834Z,33.027
2022-07-30T15:00:09.134Z,32.803001
2022-07-30T15:02:23.498Z,32.654999
2022-07-30T15:04:38.010Z,32.577
2022-07-30T15:06:52.415Z,32.380001
2022-07-30T15:09:06.808Z,32.028
2022-07-30T15:11:21.974Z,32.516998
2022-07-30T15:13:36.507Z,32.984001
2022-07-30T15:15:53.902Z,32.709999
2022-07-30T15:18:08.333Z,32.598
2022-07-30T15:20:23.713Z,33.094002
2022-07-30T15:22:38.182Z,33.393002
2022-07-30T15:24:52.535Z,33.915001
2022-07-30T15:27:06.944Z,34.109001
2022-07-30T15:29:21.298Z,34.396
2022-07-30T15:31:35.691Z,34.923
2022-07-30T15:33:50.064Z,35.712002
2022-07-30T15:36:05.424Z,36.863998
2022-07-30T15:38:19.791Z,35.868999
2022-07-30T15:40:35.180Z,35.372002
2022-07-30T15:42:50.586Z,34.248001
2022-07-30T15:45:17.033Z,34.200001
2022-07-30T15:47:22.373Z,34.695999
2022-07-30T15:49:36.794Z,34.084999
2022-07-30T15:51:51.101Z,33.438
2022-07-30T15:54:07.477Z,32.907001
2022-07-30T15:56:21.848Z,32.657001
2022-07-30T15:58:39.255Z,33.082001
2022-07-30T16:00:53.632Z,33.194
2022-07-30T16:03:07.927Z,33.486
2022-07-30T16:05:22.288Z,34.308998
2022-07-30T16:07:37.634Z,34.452
2022-07-30T16:09:51.994Z,34.823002
2022-07-30T16:12:06.712Z,34.945
2022-07-30T16:14:20.880Z,35.174
2022-07-30T16:16:36.305Z,36.238998
2022-07-30T16:18:50.720Z,36.834999
2022-07-30T16:21:05.072Z,37.058998
2022-07-30T16:23:21.442Z,37.213001
2022-07-30T16:25:33.797Z,37.575001
